createdAt,value
2023-05-05T00:01:14.404Z,3.10
2023-05-05T00:04:18.798Z,3.10
2023-05-05T00:07:23.403Z,3.45
2023-05-05T00:10:28.012Z,3.47
2023-05-05T00:13:32.359Z,3.30
2023-05-05T00:16:36.677Z,2.75
2023-05-05T00:19:41.221Z,3.63
2023-05-05T00:22:45.398Z,3.47
2023-05-05T00:25:49.774Z,3.17
2023-05-05T00:28:54.039Z,3.30
2023-05-05T00:31:58.321Z,3.10
2023-05-05T00:35:02.639Z,3.42
2023-05-05T00:38:07.191Z,2.90
2023-05-05T00:41:11.470Z,3.22
2023-05-05T00:44:15.768Z,3.58
2023-05-05T00:47:19.922Z,3.63
2023-05-05T00:50:24.253Z,3.20
2023-05-05T00:53:28.668Z,3.38
2023-05-05T00:56:32.993Z,3.22
2023-05-05T00:59:37.371Z,3.60
2023-05-05T01:02:41.611Z,3.72
2023-05-05T01:05:45.803Z,3.53
2023-05-05T01:08:50.128Z,3.35
2023-05-05T01:11:54.464Z,3.47
2023-05-05T01:14:58.676Z,3.40
2023-05-05T01:18:02.933Z,3.20
2023-05-05T01:21:07.451Z,3.00
2023-05-05T01:24:11.735Z,3.90
2023-05-05T01:27:15.859Z,3.03
2023-05-05T01:30:19.904Z,3.45
2023-05-05T01:33:24.206Z,3.42
2023-05-05T01:36:28.512Z,3.38
2023-05-05T01:39:33.051Z,3.35
2023-05-05T01:42:37.155Z,3.20
2023-05-05T01:45:41.211Z,3.50
2023-05-05T01:48:45.623Z,3.35
2023-05-05T01:51:50.010Z,2.90
2023-05-05T01:54:54.222Z,3.40
2023-05-05T01:57:58.283Z,3.17
2023-05-05T02:01:02.392Z,3.60
2023-05-05T02:04:06.912Z,3.47
2023-05-05T02:07:11.193Z,3.53
2023-05-05T02:10:15.418Z,3.70
2023-05-05T02:13:19.717Z,3.40
2023-05-05T02:16:24.138Z,3.75
2023-05-05T02:19:28.342Z,2.90
2023-05-05T02:22:32.503Z,3.40
2023-05-05T02:25:36.834Z,3.05
2023-05-05T02:28:40.971Z,3.25
2023-05-05T02:31:45.445Z,3.05
2023-05-05T02:34:49.653Z,2.80
2023-05-05T02:37:54.258Z,2.70
2023-05-05T02:40:58.998Z,3.00
2023-05-05T02:44:03.168Z,2.55
2023-05-05T02:47:07.265Z,3.20
2023-05-05T02:50:11.598Z,3.47
2023-05-05T02:53:16.143Z,2.83
2023-05-05T02:56:20.472Z,3.47
2023-05-05T02:59:24.614Z,3.00
2023-05-05T03:02:28.901Z,2.75
2023-05-05T03:05:33.394Z,3.47
2023-05-05T03:08:37.769Z,3.40
2023-05-05T03:11:41.936Z,2.97
2023-05-05T03:14:46.239Z,2.97
2023-05-05T03:17:50.436Z,3.10
2023-05-05T03:20:54.829Z,3.03
2023-05-05T03:23:59.137Z,2.95
2023-05-05T03:27:03.494Z,3.25
2023-05-05T03:30:08.136Z,2.95
2023-05-05T03:33:12.569Z,3.33
2023-05-05T03:36:17.055Z,3.60
2023-05-05T03:39:21.662Z,2.72
2023-05-05T03:42:25.895Z,3.17
2023-05-05T03:45:30.139Z,2.88
2023-05-05T03:48:34.574Z,3.05
2023-05-05T03:51:38.903Z,3.33
2023-05-05T03:54:43.282Z,3.33
2023-05-05T03:57:47.498Z,3.35
2023-05-05T04:00:51.587Z,3.22
2023-05-05T04:03:55.853Z,3.22
2023-05-05T04:07:00.153Z,3.22
2023-05-05T04:10:05.072Z,3.50
2023-05-05T04:13:09.376Z,3.33
2023-05-05T04:16:13.533Z,2.80
2023-05-05T04:19:17.918Z,3.05
2023-05-05T04:22:22.491Z,3.17
2023-05-05T04:25:26.852Z,3.22
2023-05-05T04:28:31.090Z,3.42
2023-05-05T04:31:35.192Z,3.40
2023-05-05T04:34:39.671Z,3.38
2023-05-05T04:37:44.138Z,4.38
2023-05-05T04:40:48.553Z,3.90
2023-05-05T04:43:52.809Z,4.07
2023-05-05T04:46:57.106Z,4.05
2023-05-05T04:50:01.562Z,3.78
2023-05-05T04:53:05.879Z,3.15
2023-05-05T04:56:10.082Z,3.67
2023-05-05T04:59:14.846Z,4.10
2023-05-05T05:02:19.059Z,3.97
2023-05-05T05:05:23.390Z,3.58
2023-05-05T05:08:27.803Z,3.25
2023-05-05T05:11:32.290Z,3.90
2023-05-05T05:14:36.466Z,5.32
2023-05-05T05:17:40.683Z,3.95
2023-05-05T05:20:44.998Z,3.70
2023-05-05T05:23:49.435Z,3.58
2023-05-05T05:26:53.701Z,3.40
2023-05-05T05:29:58.017Z,3.30
2023-05-05T05:33:02.141Z,4.00
2023-05-05T05:36:06.429Z,3.60
2023-05-05T05:39:10.748Z,4.45
2023-05-05T05:42:15.333Z,4.03
2023-05-05T05:45:19.639Z,3.70
2023-05-05T05:48:23.730Z,4.57
2023-05-05T05:51:28.100Z,4.03
2023-05-05T05:54:32.548Z,3.90
2023-05-05T05:57:36.918Z,3.67
2023-05-05T06:00:41.375Z,4.43
2023-05-05T06:03:45.527Z,4.22
2023-05-05T06:06:49.976Z,5.05
2023-05-05T06:09:54.334Z,4.15
2023-05-05T06:12:58.686Z,2.85
2023-05-05T06:16:03.208Z,3.33
2023-05-05T06:19:07.721Z,4.30
2023-05-05T06:22:11.935Z,3.85
2023-05-05T06:25:16.594Z,4.32
2023-05-05T06:28:21.381Z,4.28
2023-05-05T06:31:25.728Z,4.95
2023-05-05T06:34:29.810Z,4.90
2023-05-05T06:37:33.924Z,5.88
2023-05-05T06:40:38.217Z,4.30
2023-05-05T06:43:42.940Z,4.72
2023-05-05T06:46:47.372Z,5.45
2023-05-05T06:49:51.929Z,4.82
2023-05-05T06:52:56.615Z,4.70
2023-05-05T06:56:00.853Z,5.30
2023-05-05T06:59:05.150Z,4.28
2023-05-05T07:02:09.493Z,5.63
2023-05-05T07:05:13.892Z,4.72
2023-05-05T07:08:18.266Z,5.15
2023-05-05T07:11:22.677Z,4.88
2023-05-05T07:14:26.900Z,4.97
2023-05-05T07:17:31.612Z,4.88
2023-05-05T07:20:36.142Z,5.00
2023-05-05T07:23:40.422Z,4.47
2023-05-05T07:26:44.849Z,5.60
2023-05-05T07:29:49.159Z,4.95
2023-05-05T07:32:53.320Z,4.30
2023-05-05T07:35:57.626Z,3.40
2023-05-05T07:39:02.249Z,4.10
2023-05-05T07:42:06.934Z,5.80
2023-05-05T07:45:11.342Z,5.00
2023-05-05T07:48:15.669Z,5.18
2023-05-05T07:51:19.962Z,4.43
2023-05-05T07:54:24.118Z,4.13
2023-05-05T07:57:28.752Z,3.28
2023-05-05T08:00:33.240Z,2.63
2023-05-05T08:03:37.973Z,2.60
2023-05-05T08:06:42.461Z,2.38
2023-05-05T08:09:46.859Z,2.60
2023-05-05T08:12:51.242Z,2.25
2023-05-05T08:15:55.758Z,2.72
2023-05-05T08:19:00.186Z,2.90
2023-05-05T08:22:04.405Z,2.50
2023-05-05T08:25:09.010Z,2.20
2023-05-05T08:28:13.320Z,1.42
2023-05-05T08:31:18.014Z,2.17
2023-05-05T08:34:22.372Z,2.10
2023-05-05T08:37:26.739Z,1.80
2023-05-05T08:40:31.121Z,1.70
2023-05-05T08:43:35.410Z,2.42
2023-05-05T08:46:39.914Z,2.40
2023-05-05T08:49:44.247Z,2.22
2023-05-05T08:52:50.708Z,1.27
2023-05-05T08:55:55.624Z,1.77
2023-05-05T08:58:59.827Z,2.05
2023-05-05T09:02:04.264Z,1.52
2023-05-05T09:05:08.957Z,0.93
2023-05-05T09:08:13.534Z,1.30
2023-05-05T09:11:17.827Z,1.95
2023-05-05T09:14:22.334Z,1.73
2023-05-05T09:17:26.838Z,0.77
2023-05-05T09:20:31.014Z,1.67
2023-05-05T09:23:35.272Z,1.67
2023-05-05T09:26:39.724Z,1.23
2023-05-05T09:29:44.296Z,1.75
2023-05-05T09:32:48.645Z,1.30
2023-05-05T09:35:53.073Z,1.42
2023-05-05T09:38:58.837Z,1.95
2023-05-05T09:42:03.150Z,1.55
2023-05-05T09:45:07.454Z,1.50
2023-05-05T09:48:11.681Z,1.40
2023-05-05T09:51:15.944Z,1.45
2023-05-05T09:54:20.219Z,1.75
2023-05-05T09:57:24.623Z,2.25
2023-05-05T10:00:28.846Z,2.35
2023-05-05T10:03:33.269Z,1.95
2023-05-05T10:06:37.659Z,2.22
2023-05-05T10:09:42.167Z,1.80
2023-05-05T10:12:46.668Z,2.05
2023-05-05T10:15:51.095Z,1.63
2023-05-05T10:18:55.559Z,1.83
2023-05-05T10:21:59.864Z,2.25
2023-05-05T10:25:04.345Z,1.60
2023-05-05T10:28:08.727Z,1.77
2023-05-05T10:31:24.164Z,2.03
2023-05-05T10:34:29.870Z,2.35
2023-05-05T10:37:34.231Z,1.70
2023-05-05T10:40:38.958Z,2.17
2023-05-05T10:43:43.184Z,1.90
2023-05-05T10:46:47.428Z,2.00
2023-05-05T10:49:51.825Z,2.50
2023-05-05T10:52:56.353Z,2.33
2023-05-05T10:56:00.976Z,2.00
2023-05-05T10:59:05.182Z,2.40
2023-05-05T11:02:09.267Z,1.70
2023-05-05T11:05:13.679Z,2.15
2023-05-05T11:08:18.515Z,2.35
2023-05-05T11:11:22.949Z,2.00
2023-05-05T11:14:27.249Z,2.38
2023-05-05T11:17:31.507Z,2.03
2023-05-05T11:20:36.052Z,1.98
2023-05-05T11:23:40.302Z,2.25
2023-05-05T11:26:44.653Z,2.10
2023-05-05T11:29:50.282Z,1.45
2023-05-05T11:32:56.398Z,1.33
2023-05-05T11:36:01.841Z,1.52
2023-05-05T11:39:07.691Z,1.80
2023-05-05T11:42:12.304Z,1.50
2023-05-05T11:45:16.808Z,1.33
2023-05-05T11:48:21.471Z,1.92
2023-05-05T11:51:25.667Z,1.63
2023-05-05T11:54:29.659Z,1.70
2023-05-05T11:57:34.217Z,1.88
2023-05-05T12:00:38.594Z,1.98
2023-05-05T12:03:43.211Z,2.20
2023-05-05T12:06:47.718Z,1.85
2023-05-05T12:09:51.940Z,1.98
2023-05-05T12:12:56.174Z,1.83
2023-05-05T12:16:00.649Z,2.05
2023-05-05T12:19:05.416Z,2.00
2023-05-05T12:22:09.564Z,1.83
2023-05-05T12:25:13.768Z,1.73
2023-05-05T12:28:18.066Z,1.38
2023-05-05T12:31:22.265Z,1.88
2023-05-05T12:34:26.990Z,1.75
2023-05-05T12:37:31.133Z,1.50
2023-05-05T12:40:35.702Z,1.55
2023-05-05T12:43:40.059Z,1.95
2023-05-05T12:46:44.720Z,2.08
2023-05-05T12:50:08.547Z,2.95
2023-05-05T12:53:13.140Z,2.17
2023-05-05T12:56:17.491Z,2.92
2023-05-05T12:59:22.146Z,7.47
2023-05-05T13:02:26.573Z,2.40
2023-05-05T13:05:31.019Z,1.83
2023-05-05T13:08:35.500Z,2.17
2023-05-05T13:11:39.799Z,1.65
2023-05-05T13:14:44.242Z,1.70
2023-05-05T13:17:48.967Z,2.08
2023-05-05T13:20:53.321Z,1.63
2023-05-05T13:24:05.071Z,1.98
2023-05-05T13:27:22.127Z,2.00
2023-05-05T13:30:26.294Z,2.22
2023-05-05T13:33:30.491Z,2.55
2023-05-05T13:36:34.481Z,5.55
2023-05-05T13:39:38.787Z,8.00
2023-05-05T13:42:43.298Z,1.98
2023-05-05T13:45:47.527Z,1.65
2023-05-05T13:48:56.000Z,2.05
2023-05-05T13:52:00.940Z,2.30
2023-05-05T13:55:05.175Z,2.10
2023-05-05T13:58:09.716Z,1.90
2023-05-05T14:01:14.172Z,1.95
2023-05-05T14:04:18.692Z,2.58
2023-05-05T14:07:23.243Z,2.13
2023-05-05T14:10:27.334Z,2.17
2023-05-05T14:13:31.610Z,2.03
2023-05-05T14:19:36.492Z,1.38
2023-05-05T14:22:40.789Z,1.38
2023-05-05T14:25:45.370Z,1.80
2023-05-05T14:28:50.239Z,1.65
2023-05-05T14:31:54.681Z,1.80
2023-05-05T14:34:59.047Z,1.90
2023-05-05T14:38:03.224Z,1.75
2023-05-05T14:41:07.710Z,2.10
2023-05-05T14:44:11.842Z,1.90
2023-05-05T14:47:16.283Z,1.98
2023-05-05T14:50:20.450Z,1.77
2023-05-05T14:53:24.563Z,1.90
2023-05-05T14:56:29.038Z,2.15
2023-05-05T14:59:33.441Z,2.20
2023-05-05T15:02:37.916Z,1.73
2023-05-05T15:05:42.122Z,1.85
2023-05-05T15:08:46.210Z,1.80
2023-05-05T15:11:50.633Z,1.92
2023-05-05T15:14:55.048Z,1.75
2023-05-05T15:17:59.579Z,2.00
2023-05-05T15:21:04.009Z,2.00
2023-05-05T15:24:08.350Z,2.10
2023-05-05T15:27:12.731Z,2.30
2023-05-05T15:30:17.151Z,2.05
2023-05-05T15:33:21.513Z,2.40
2023-05-05T15:36:25.554Z,2.00
2023-05-05T15:39:29.761Z,1.50
2023-05-05T15:42:34.163Z,1.60
2023-05-05T15:45:38.464Z,1.50
2023-05-05T15:48:43.220Z,1.38
2023-05-05T15:51:47.366Z,1.50
2023-05-05T15:54:51.536Z,1.40
2023-05-05T15:57:56.407Z,1.00
2023-05-05T16:01:00.935Z,1.23
2023-05-05T16:04:05.489Z,1.00
2023-05-05T16:07:09.624Z,1.02
2023-05-05T16:10:14.111Z,1.48
2023-05-05T16:13:18.379Z,1.27
2023-05-05T16:16:23.328Z,1.30
2023-05-05T16:19:28.648Z,0.90
2023-05-05T16:22:32.869Z,1.17
2023-05-05T16:25:37.805Z,1.10
2023-05-05T16:28:41.985Z,1.23
2023-05-05T16:31:46.741Z,1.13
2023-05-05T16:34:50.993Z,0.77
2023-05-05T16:37:55.445Z,0.75
2023-05-05T16:40:59.671Z,0.80
2023-05-05T16:44:03.944Z,1.00
2023-05-05T16:47:08.187Z,0.82
2023-05-05T16:50:12.618Z,0.90
2023-05-05T16:53:17.030Z,0.75
2023-05-05T16:56:21.209Z,1.08
2023-05-05T16:59:25.309Z,1.02
2023-05-05T17:02:29.729Z,1.00
2023-05-05T17:05:34.205Z,0.73
2023-05-05T17:08:38.555Z,0.80
2023-05-05T17:11:43.009Z,1.00
2023-05-05T17:14:47.347Z,0.85
2023-05-05T17:17:51.825Z,0.70
2023-05-05T17:20:56.327Z,1.10
2023-05-05T17:24:00.585Z,0.65
2023-05-05T17:27:04.587Z,0.35
2023-05-05T17:30:09.040Z,0.70
2023-05-05T17:33:13.634Z,1.05
2023-05-05T17:36:17.912Z,0.50
2023-05-05T17:39:22.347Z,1.20
2023-05-05T17:42:26.447Z,1.08
2023-05-05T17:45:31.069Z,1.25
2023-05-05T17:48:35.588Z,1.00
2023-05-05T17:51:40.414Z,1.38
2023-05-05T17:54:44.689Z,1.10
2023-05-05T17:57:48.781Z,1.33
2023-05-05T18:00:53.144Z,1.20
2023-05-05T18:03:57.544Z,1.10
2023-05-05T18:07:01.795Z,1.02
2023-05-05T18:10:06.071Z,1.33
2023-05-05T18:13:10.338Z,1.00
2023-05-05T18:16:14.685Z,1.15
2023-05-05T18:19:19.178Z,1.20
2023-05-05T18:22:23.714Z,0.75
2023-05-05T18:25:27.984Z,1.40
2023-05-05T18:28:32.169Z,1.20
2023-05-05T18:31:36.395Z,0.90
2023-05-05T18:34:40.563Z,1.73
2023-05-05T18:37:44.714Z,1.30
2023-05-05T18:40:49.196Z,1.60
2023-05-05T18:43:53.386Z,1.30
2023-05-05T18:46:58.032Z,1.25
2023-05-05T18:50:02.273Z,1.08
2023-05-05T18:53:06.577Z,1.20
2023-05-05T18:56:10.797Z,1.17
2023-05-05T18:59:15.143Z,1.02
2023-05-05T19:02:19.005Z,1.35
2023-05-05T19:05:23.344Z,1.00
2023-05-05T19:08:27.944Z,0.90
2023-05-05T19:11:32.213Z,0.93
2023-05-05T19:14:36.136Z,1.08
2023-05-05T19:17:40.706Z,1.00
2023-05-05T19:20:45.224Z,1.73
2023-05-05T19:23:49.387Z,3.47
2023-05-05T19:26:53.601Z,1.10
2023-05-05T19:29:57.616Z,1.10
2023-05-05T19:33:01.908Z,0.90
2023-05-05T19:36:06.514Z,1.02
2023-05-05T19:39:11.105Z,1.17
2023-05-05T19:42:16.058Z,0.98
2023-05-05T19:45:20.276Z,1.10
2023-05-05T19:48:24.793Z,1.48
2023-05-05T19:51:29.271Z,1.10
2023-05-05T19:54:33.467Z,1.55
2023-05-05T19:57:37.862Z,1.00
2023-05-05T20:00:42.137Z,1.10
2023-05-05T20:03:46.792Z,1.20
2023-05-05T20:06:51.154Z,1.00
2023-05-05T20:09:55.936Z,1.10
2023-05-05T20:13:00.616Z,1.15
2023-05-05T20:16:04.916Z,1.05
2023-05-05T20:19:09.147Z,1.17
2023-05-05T20:22:13.612Z,1.02
2023-05-05T20:25:18.170Z,1.80
2023-05-05T20:28:22.741Z,1.58
2023-05-05T20:31:27.308Z,1.35
2023-05-05T20:34:31.479Z,1.00
2023-05-05T20:37:35.825Z,1.27
2023-05-05T20:40:40.149Z,1.10
2023-05-05T20:43:44.600Z,1.10
2023-05-05T20:46:48.707Z,1.50
2023-05-05T20:49:53.295Z,1.05
2023-05-05T20:52:57.723Z,1.90
2023-05-05T20:56:01.847Z,1.23
2023-05-05T20:59:06.249Z,1.30
2023-05-05T21:02:10.276Z,1.40
2023-05-05T21:05:14.744Z,1.35
2023-05-05T21:08:18.874Z,1.20
2023-05-05T21:11:23.046Z,1.30
2023-05-05T21:14:27.148Z,1.20
2023-05-05T21:17:31.402Z,0.98
2023-05-05T21:20:35.752Z,1.35
2023-05-05T21:23:40.018Z,1.55
2023-05-05T21:26:44.486Z,1.80
2023-05-05T21:29:48.516Z,1.63
2023-05-05T21:32:52.822Z,1.38
2023-05-05T21:35:57.114Z,1.38
2023-05-05T21:39:01.403Z,1.10
2023-05-05T21:42:05.929Z,1.20
2023-05-05T21:45:10.174Z,1.20
2023-05-05T21:48:14.389Z,1.42
2023-05-05T21:51:18.583Z,1.10
2023-05-05T21:54:22.832Z,1.50
2023-05-05T21:57:27.309Z,1.42
2023-05-05T22:00:31.489Z,1.25
2023-05-05T22:03:35.860Z,1.35
2023-05-05T22:06:40.206Z,1.30
2023-05-05T22:09:44.580Z,1.10
2023-05-05T22:12:48.798Z,1.30
2023-05-05T22:15:53.135Z,1.23
2023-05-05T22:18:57.274Z,1.42
2023-05-05T22:22:01.551Z,1.20
2023-05-05T22:25:05.962Z,1.10
2023-05-05T22:28:10.292Z,1.15
2023-05-05T22:31:14.600Z,1.40
2023-05-05T22:34:18.970Z,1.25
2023-05-05T22:37:23.544Z,1.25
2023-05-05T22:40:27.948Z,1.60
2023-05-05T22:43:32.288Z,1.23
2023-05-05T22:46:36.897Z,1.30
2023-05-05T22:49:41.118Z,1.50
2023-05-05T22:52:45.428Z,1.50
2023-05-05T22:55:49.864Z,1.40
2023-05-05T22:58:54.260Z,1.48
2023-05-05T23:01:58.612Z,1.40
2023-05-05T23:05:02.961Z,1.30
2023-05-05T23:08:07.066Z,1.20
2023-05-05T23:11:11.535Z,1.50
2023-05-05T23:14:15.927Z,1.25
2023-05-05T23:17:20.071Z,1.20
2023-05-05T23:20:24.370Z,1.33
2023-05-05T23:23:28.735Z,1.48
2023-05-05T23:26:33.193Z,1.40
2023-05-05T23:29:37.402Z,1.38
2023-05-05T23:32:41.935Z,1.50
2023-05-05T23:35:46.366Z,1.65
2023-05-05T23:38:50.831Z,1.25
2023-05-05T23:41:55.234Z,1.40
2023-05-05T23:44:59.511Z,1.58
2023-05-05T23:48:04.032Z,1.40
2023-05-05T23:51:08.324Z,1.60
2023-05-05T23:54:12.441Z,1.40
2023-05-05T23:57:16.677Z,1.40
